Time;durP1;ratioP1;P1;durP2;ratioP2;P2;SDS_P1;SDS_P2;PMS_P1;PMS_P2;Temp;Humidity;BMP_temperature;BMP_pressure;BME280_temperature;BME280_humidity;BME280_pressure;Samples;Min_cycle;Max_cycle;Signal;HPM_P1;HPM_P2
2021/03/07 00:00:53;;;;;;;8.17;5.57;;;;;;;-2.17;100.00;99468.56;3701245;79;43322;-17
2021/03/07 00:05:59;;;;;;;8.37;5.17;;;;;;;-2.23;100.00;99464.80;3765725;79;43612;-17
2021/03/07 00:11:05;;;;;;;8.80;5.37;;;;;;;-2.28;100.00;99458.38;3707036;79;44055;-18
2021/03/07 00:16:12;;;;;;;6.73;4.90;;;;;;;-2.32;100.00;99456.78;3764771;79;44100;-18
2021/03/07 00:21:18;;;;;;;7.87;5.27;;;;;;;-2.38;100.00;99456.98;3705523;79;43368;-18
2021/03/07 00:26:24;;;;;;;7.83;4.90;;;;;;;-2.41;100.00;99455.79;3766565;79;43437;-18
2021/03/07 00:31:30;;;;;;;7.83;5.10;;;;;;;-2.49;100.00;99450.30;3706807;79;43108;-18
2021/03/07 00:36:37;;;;;;;9.83;4.83;;;;;;;-2.52;100.00;99439.84;3766327;79;44408;-18
2021/03/07 00:41:43;;;;;;;8.83;5.27;;;;;;;-2.54;100.00;99440.83;3763629;78;43361;-17
2021/03/07 00:46:49;;;;;;;9.80;5.77;;;;;;;-2.59;100.00;99442.30;3767469;79;43725;-18
2021/03/07 00:51:56;;;;;;;8.57;5.30;;;;;;;-2.64;100.00;99432.36;3701002;79;44671;-18
2021/03/07 00:57:01;;;;;;;8.67;4.93;;;;;;;-2.69;100.00;99424.60;3765638;79;43380;-18
2021/03/07 01:02:08;;;;;;;9.63;5.87;;;;;;;-2.74;100.00;99420.41;3706037;79;44602;-18
2021/03/07 01:07:14;;;;;;;8.87;5.50;;;;;;;-2.80;100.00;99417.08;3766138;79;43700;-18
2021/03/07 01:12:20;;;;;;;8.57;4.40;;;;;;;-2.89;100.00;99408.17;3706748;79;44098;-18
2021/03/07 01:17:26;;;;;;;8.07;5.20;;;;;;;-2.92;100.00;99402.11;3766412;79;44440;-19
2021/03/07 01:22:32;;;;;;;10.83;5.63;;;;;;;-2.95;100.00;99389.90;3703507;79;44044;-19
2021/03/07 01:27:38;;;;;;;9.03;5.20;;;;;;;-3.00;100.00;99385.25;3765792;79;43586;-19
2021/03/07 01:32:44;;;;;;;8.30;5.73;;;;;;;-3.02;100.00;99371.26;3637200;80;44076;-19
2021/03/07 01:37:51;;;;;;;10.20;5.60;;;;;;;-3.04;100.00;99367.34;3768608;79;43431;-19
2021/03/07 01:42:59;;;;;;;8.90;5.33;;;;;;;-3.05;100.00;99352.90;3641099;81;44092;-19
2021/03/07 01:48:07;;;;;;;9.90;5.37;;;;;;;-3.11;100.00;99348.23;3767702;78;43727;-19
2021/03/07 01:53:14;;;;;;;11.53;6.13;;;;;;;-3.15;100.00;99333.45;3699735;80;43652;-19
2021/03/07 01:58:25;;;;;;;11.40;5.30;;;;;;;-3.16;100.00;99330.84;3728635;78;44047;-19
2021/03/07 02:03:31;;;;;;;8.50;5.53;;;;;;;-3.21;100.00;99319.14;3631330;81;44047;-19
2021/03/07 02:08:37;;;;;;;11.33;6.50;;;;;;;-3.22;100.00;99308.66;3720696;79;44062;-19
2021/03/07 02:13:44;;;;;;;9.87;5.47;;;;;;;-3.25;100.00;99293.83;3631156;81;42876;-19
2021/03/07 02:18:53;;;;;;;10.90;6.00;;;;;;;-3.25;100.00;99293.83;3722214;79;43700;-19
2021/03/07 02:24:04;;;;;;;7.13;5.13;;;;;;;-3.30;100.00;99287.84;3629961;81;44034;-19
2021/03/07 02:29:11;;;;;;;9.87;5.87;;;;;;;-3.32;100.00;99276.48;3718514;78;43762;-19
2021/03/07 02:34:21;;;;;;;9.00;5.40;;;;;;;-3.38;100.00;99274.92;3631505;80;44433;-19
2021/03/07 02:39:29;;;;;;;9.83;5.90;;;;;;;-3.42;100.00;99268.91;3717232;78;43408;-19
2021/03/07 02:44:38;;;;;;;10.87;5.87;;;;;;;-3.44;100.00;99261.50;3630648;81;44081;-18
2021/03/07 02:49:45;;;;;;;12.70;5.97;;;;;;;-3.45;100.00;99254.51;3719103;79;43707;-19
2021/03/07 02:54:53;;;;;;;10.33;6.03;;;;;;;-3.50;100.00;99255.14;3631102;80;42952;-18
2021/03/07 03:00:00;;;;;;;9.67;5.80;;;;;;;-3.50;100.00;99251.63;3719802;78;44237;-18
2021/03/07 03:05:09;;;;;;;12.30;6.30;;;;;;;-3.50;100.00;99247.23;3629127;80;43484;-18
2021/03/07 03:10:15;;;;;;;9.73;6.10;;;;;;;-3.53;100.00;99238.11;3720479;78;43698;-18
2021/03/07 03:15:22;;;;;;;13.23;6.53;;;;;;;-3.56;100.00;99226.36;3628206;81;43976;-18
2021/03/07 03:20:28;;;;;;;9.87;6.20;;;;;;;-3.58;100.00;99217.64;3717692;79;43771;-19
2021/03/07 03:25:35;;;;;;;10.23;5.70;;;;;;;-3.60;100.00;99210.27;3716026;79;43384;-18
2021/03/07 03:30:41;;;;;;;8.83;5.70;;;;;;;-3.63;100.00;99210.38;3626457;80;43123;-19
2021/03/07 03:35:47;;;;;;;9.07;5.63;;;;;;;-3.63;100.00;99207.27;3717881;78;43714;-18
2021/03/07 03:40:56;;;;;;;9.30;5.83;;;;;;;-3.67;100.00;99199.52;3631649;80;43719;-19
2021/03/07 03:46:04;;;;;;;9.53;6.33;;;;;;;-3.72;100.00;99194.42;3714328;79;43442;-18
2021/03/07 03:51:11;;;;;;;9.03;5.70;;;;;;;-3.76;100.00;99185.77;3719111;79;43711;-18
2021/03/07 03:56:20;;;;;;;9.97;5.83;;;;;;;-3.76;100.00;99175.23;3717577;78;43718;-18
2021/03/07 04:01:27;;;;;;;8.80;5.60;;;;;;;-3.74;100.00;99172.54;3641978;80;43972;-19
2021/03/07 04:06:34;;;;;;;9.53;5.83;;;;;;;-3.79;100.00;99167.91;3725081;78;43673;-19
2021/03/07 04:11:39;;;;;;;11.00;6.47;;;;;;;-3.84;100.00;99166.75;3726218;78;44034;-18
2021/03/07 04:16:49;;;;;;;10.20;5.80;;;;;;;-3.87;100.00;99160.27;3640683;80;43316;-18
2021/03/07 04:21:57;;;;;;;10.13;5.70;;;;;;;-3.86;100.00;99163.30;3641586;80;44145;-19
2021/03/07 04:27:03;;;;;;;9.67;5.80;;;;;;;-3.92;100.00;99159.11;3727551;79;44086;-18
2021/03/07 04:32:11;;;;;;;7.83;5.27;;;;;;;-3.95;100.00;99152.62;3727267;79;44011;-18
2021/03/07 04:37:17;;;;;;;10.70;6.70;;;;;;;-3.99;100.00;99153.63;3725184;78;43349;-18
2021/03/07 04:42:24;;;;;;;10.10;6.43;;;;;;;-4.03;100.00;99151.55;3641186;80;42901;-18
2021/03/07 04:47:30;;;;;;;12.37;6.00;;;;;;;-4.03;100.00;99148.92;3725441;78;44607;-18
2021/03/07 04:52:37;;;;;;;13.93;6.50;;;;;;;-4.06;100.00;99146.39;3642239;80;44023;-18
2021/03/07 04:57:44;;;;;;;10.53;5.30;;;;;;;-4.05;100.00;99143.31;3752924;78;44073;-18
2021/03/07 05:02:50;;;;;;;9.23;6.20;;;;;;;-4.02;100.00;99144.06;3705806;79;43404;-19
2021/03/07 05:07:58;;;;;;;10.07;6.30;;;;;;;-4.05;100.00;99142.00;3766202;78;43398;-19
2021/03/07 05:13:04;;;;;;;12.47;6.57;;;;;;;-4.07;100.00;99142.06;3766425;78;43689;-18
2021/03/07 05:18:11;;;;;;;12.57;6.53;;;;;;;-4.09;100.00;99139.94;3763099;78;44038;-19
2021/03/07 05:23:17;;;;;;;9.97;6.20;;;;;;;-4.12;100.00;99134.77;3765335;78;44428;-18
2021/03/07 05:28:23;;;;;;;11.80;6.60;;;;;;;-4.17;100.00;99140.63;3768788;78;43329;-18
2021/03/07 05:33:31;;;;;;;9.27;6.03;;;;;;;-4.28;100.00;99140.99;3765527;79;43722;-18
2021/03/07 05:38:38;;;;;;;13.10;6.73;;;;;;;-4.37;100.00;99150.04;3766503;78;43404;-18
2021/03/07 05:43:47;;;;;;;13.03;6.83;;;;;;;-4.45;100.00;99140.23;3767094;79;43337;-19
2021/03/07 05:48:52;;;;;;;11.33;6.33;;;;;;;-4.50;100.00;99150.02;3644671;80;44118;-18
2021/03/07 05:53:59;;;;;;;9.67;6.60;;;;;;;-4.49;100.00;99141.22;3766397;79;43718;-19
2021/03/07 05:59:07;;;;;;;10.27;6.83;;;;;;;-4.54;100.00;99137.89;3642053;80;43429;-18
2021/03/07 06:04:13;;;;;;;10.70;6.33;;;;;;;-4.56;100.00;99137.92;3765994;78;43479;-19
2021/03/07 06:09:22;;;;;;;10.43;7.07;;;;;;;-4.57;100.00;99147.19;3704626;79;43989;-19
2021/03/07 06:14:31;;;;;;;11.27;6.73;;;;;;;-4.54;100.00;99137.43;3763743;79;44031;-19
2021/03/07 06:20:01;;;;;;;11.90;7.63;;;;;;;-4.54;100.00;99137.43;3766244;78;44013;-18
2021/03/07 06:25:11;;;;;;;14.27;6.70;;;;;;;-4.56;100.00;99144.97;3766991;79;43118;-19
2021/03/07 06:30:20;;;;;;;12.67;7.43;;;;;;;-4.59;100.00;99143.74;3698290;79;44007;-19
2021/03/07 06:35:28;;;;;;;10.83;7.07;;;;;;;-4.51;100.00;99152.23;3765547;78;43376;-19
2021/03/07 06:40:36;;;;;;;12.20;6.70;;;;;;;-4.44;100.00;99151.59;3764205;78;44064;-20
2021/03/07 06:45:44;;;;;;;11.27;6.67;;;;;;;-4.35;100.00;99152.17;3700041;80;42918;-20
2021/03/07 06:50:56;;;;;;;10.77;6.73;;;;;;;-4.26;100.00;99148.83;3766436;78;43687;-21
2021/03/07 06:56:02;;;;;;;11.33;6.63;;;;;;;-4.13;100.00;99150.15;3706121;80;44531;-18
2021/03/07 07:01:18;;;;;;;10.83;6.50;;;;;;;-4.00;100.00;99145.79;3743603;78;43324;-18
2021/03/07 07:06:24;;;;;;;11.90;6.87;;;;;;;-3.92;100.00;99147.26;3738967;79;43075;-18
2021/03/07 07:11:38;;;;;;;12.00;6.60;;;;;;;-3.84;100.00;99152.27;3650606;80;44831;-18
2021/03/07 07:16:44;;;;;;;12.53;6.77;;;;;;;-3.75;100.00;99151.94;3734997;79;43354;-18
2021/03/07 07:21:51;;;;;;;17.17;8.10;;;;;;;-3.63;100.00;99151.11;3651428;80;43652;-18
2021/03/07 07:26:57;;;;;;;9.77;6.23;;;;;;;-3.51;100.00;99153.75;3736965;78;44122;-18
2021/03/07 07:32:08;;;;;;;13.47;6.63;;;;;;;-3.38;100.00;99151.56;3739929;78;44035;-18
2021/03/07 07:37:20;;;;;;;13.37;7.10;;;;;;;-3.26;100.00;99141.89;3737080;79;43424;-18
2021/03/07 07:42:29;;;;;;;11.77;6.93;;;;;;;-3.13;100.00;99140.97;3648207;80;42934;-18
2021/03/07 07:47:44;;;;;;;13.13;7.27;;;;;;;-2.99;100.00;99137.80;3738410;79;44540;-18
2021/03/07 07:52:50;;;;;;;13.10;7.60;;;;;;;-2.80;100.00;99131.36;3743355;79;44217;-18
2021/03/07 07:57:55;;;;;;;12.17;7.73;;;;;;;-2.71;100.00;99139.39;3660402;80;44054;-18
2021/03/07 08:03:01;;;;;;;12.27;7.60;;;;;;;-2.54;100.00;99136.08;3765297;79;44058;-19
2021/03/07 08:08:10;;;;;;;15.60;8.93;;;;;;;-2.41;100.00;99132.04;3707209;79;43682;-18
2021/03/07 08:13:18;;;;;;;16.03;9.77;;;;;;;-2.25;100.00;99130.95;3765748;79;43687;-18
2021/03/07 08:18:26;;;;;;;15.13;8.63;;;;;;;-2.02;100.00;99119.89;3764080;78;44054;-18
2021/03/07 08:23:52;;;;;;;13.00;7.93;;;;;;;-1.87;100.00;99115.29;3699390;80;42838;-18
2021/03/07 08:28:57;;;;;;;11.37;7.27;;;;;;;-1.53;100.00;99113.42;3767637;78;43421;-18
2021/03/07 08:34:25;;;;;;;13.17;6.80;;;;;;;-1.26;100.00;99113.52;3644002;80;43983;-19
2021/03/07 08:39:32;;;;;;;10.67;5.63;;;;;;;-0.98;100.00;99110.06;3766134;79;44074;-18
2021/03/07 08:44:38;;;;;;;9.90;6.37;;;;;;;-0.71;100.00;99093.35;3766168;79;43284;-18
2021/03/07 08:49:44;;;;;;;10.13;5.33;;;;;;;-0.44;100.00;99087.66;3766996;78;43715;-18
2021/03/07 08:54:52;;;;;;;8.33;5.83;;;;;;;-0.14;100.00;99097.65;3703804;80;43430;-17
2021/03/07 09:00:06;;;;;;;9.10;5.60;;;;;;;0.04;100.00;99087.92;3752989;79;44010;-18
2021/03/07 09:05:30;;;;;;;7.77;5.37;;;;;;;0.14;100.00;99086.51;3648442;81;44507;-17
2021/03/07 09:10:38;;;;;;;8.43;5.33;;;;;;;0.26;100.00;99083.70;3739094;78;44109;-17
2021/03/07 09:15:52;;;;;;;6.60;4.60;;;;;;;0.37;100.00;99074.34;3736815;78;44208;-17
2021/03/07 09:21:00;;;;;;;5.57;4.40;;;;;;;0.53;100.00;99073.89;3739381;78;44646;-17
2021/03/07 09:26:09;;;;;;;6.57;4.47;;;;;;;0.68;100.00;99070.05;3646867;81;43465;-17
2021/03/07 09:31:17;;;;;;;6.27;4.70;;;;;;;1.03;100.00;99076.09;3738795;78;44113;-18
2021/03/07 09:36:25;;;;;;;6.77;4.30;;;;;;;1.22;100.00;99073.27;3646543;80;44182;-18
2021/03/07 09:41:33;;;;;;;6.10;4.70;;;;;;;1.45;100.00;99065.81;3743014;79;43762;-18
2021/03/07 09:46:41;;;;;;;6.77;5.23;;;;;;;1.52;100.00;99064.50;3740434;79;43440;-19
2021/03/07 09:51:50;;;;;;;7.17;4.50;;;;;;;1.63;100.00;99063.89;3649412;80;43759;-18
2021/03/07 09:56:56;;;;;;;5.20;3.90;;;;;;;1.97;98.38;99059.26;3735605;78;44292;-17
2021/03/07 10:02:04;;;;;;;6.13;4.07;;;;;;;2.10;95.03;99059.38;3730450;78;44716;-17
2021/03/07 10:07:26;;;;;;;5.00;3.60;;;;;;;2.05;96.51;99049.50;3628073;81;44012;-17
2021/03/07 10:12:44;;;;;;;4.27;3.40;;;;;;;2.28;95.54;99049.92;3718789;79;43445;-17
2021/03/07 10:17:50;;;;;;;4.03;3.40;;;;;;;2.33;94.33;99050.48;3632809;80;44130;-16
2021/03/07 10:22:58;;;;;;;5.63;3.50;;;;;;;2.50;88.68;99037.97;3718761;79;43380;-17
2021/03/07 10:28:06;;;;;;;5.37;3.40;;;;;;;2.69;88.52;99041.17;3718508;78;42152;-17
2021/03/07 10:33:16;;;;;;;4.77;3.60;;;;;;;2.88;89.09;99026.23;3626185;80;43355;-16
2021/03/07 10:38:22;;;;;;;6.27;4.00;;;;;;;2.98;86.72;99025.19;3715236;79;42933;-17
2021/03/07 10:43:28;;;;;;;5.53;3.50;;;;;;;3.01;87.97;99023.64;3720777;79;44102;-16
2021/03/07 10:48:34;;;;;;;5.73;3.53;;;;;;;3.07;85.92;99018.39;3722971;79;44109;-17
2021/03/07 10:53:40;;;;;;;5.17;3.70;;;;;;;3.17;86.17;99005.35;3719354;79;42807;-17
2021/03/07 10:58:47;;;;;;;4.20;3.20;;;;;;;3.11;83.40;98995.95;3718945;78;44191;-17
2021/03/07 11:03:54;;;;;;;6.20;3.73;;;;;;;3.14;79.74;98986.91;3630129;80;43677;-18
2021/03/07 11:09:00;;;;;;;5.40;3.70;;;;;;;3.39;81.98;98981.68;3719538;78;44063;-18
2021/03/07 11:14:06;;;;;;;10.07;4.53;;;;;;;3.46;80.29;98973.30;3631250;80;43874;-18
2021/03/07 11:19:12;;;;;;;4.63;3.90;;;;;;;3.35;77.48;98976.66;3717560;78;43673;-18
2021/03/07 11:24:17;;;;;;;5.00;3.80;;;;;;;3.55;79.98;98962.86;3718531;78;44045;-18
2021/03/07 11:29:23;;;;;;;5.03;4.03;;;;;;;3.42;76.99;98950.47;3632944;80;44585;-18
2021/03/07 11:34:29;;;;;;;5.00;3.80;;;;;;;3.63;76.27;98947.69;3629206;80;44221;-17
2021/03/07 11:39:35;;;;;;;5.43;4.10;;;;;;;3.68;75.15;98946.91;3631681;80;44197;-17
2021/03/07 11:44:41;;;;;;;5.57;4.13;;;;;;;3.80;75.21;98925.70;3717716;78;43191;-18
2021/03/07 11:49:49;;;;;;;5.63;4.00;;;;;;;3.92;73.10;98912.86;3720305;78;43705;-18
2021/03/07 11:54:55;;;;;;;4.50;3.90;;;;;;;3.89;73.85;98897.53;3631427;80;44714;-18
2021/03/07 12:00:01;;;;;;;6.27;4.20;;;;;;;4.07;73.77;98898.06;3725086;79;44101;-18
2021/03/07 12:05:10;;;;;;;6.27;4.10;;;;;;;4.29;75.20;98888.91;3738597;79;26784;-18
2021/03/07 12:10:17;;;;;;;5.73;4.53;;;;;;;4.21;70.67;98877.94;3742786;78;43396;-18
2021/03/07 12:15:23;;;;;;;5.93;4.57;;;;;;;4.18;72.30;98874.65;3648060;81;44057;-18
2021/03/07 12:20:28;;;;;;;6.37;4.60;;;;;;;4.33;69.91;98853.55;3739565;78;44443;-18
2021/03/07 12:25:35;;;;;;;5.13;4.53;;;;;;;4.36;75.12;98849.30;3743851;79;43354;-18
2021/03/07 12:30:41;;;;;;;4.97;3.97;;;;;;;4.46;66.49;98842.83;3739145;78;43473;-18
2021/03/07 12:35:47;;;;;;;5.60;4.30;;;;;;;4.33;67.64;98829.55;3731984;79;44048;-18
2021/03/07 12:40:54;;;;;;;6.83;4.83;;;;;;;4.57;70.41;98824.22;3645615;80;44055;-18
2021/03/07 12:46:00;;;;;;;5.53;4.07;;;;;;;4.86;69.32;98819.87;3736592;78;44146;-18
2021/03/07 12:51:07;;;;;;;5.77;5.00;;;;;;;4.95;65.63;98806.29;3650196;80;43679;-17
2021/03/07 12:56:13;;;;;;;5.07;4.57;;;;;;;4.86;64.07;98802.52;3736581;78;43692;-17
2021/03/07 13:01:18;;;;;;;6.33;4.60;;;;;;;4.83;63.67;98795.20;3738757;78;43695;-17
2021/03/07 13:06:25;;;;;;;6.47;5.13;;;;;;;5.04;65.56;98787.39;3612965;81;43813;-16
2021/03/07 13:11:31;;;;;;;5.93;5.03;;;;;;;5.15;66.03;98767.89;3728522;78;44043;-17
2021/03/07 13:16:37;;;;;;;6.50;4.97;;;;;;;5.28;66.80;98755.29;3726921;78;43996;-18
2021/03/07 13:21:43;;;;;;;6.47;5.53;;;;;;;5.00;67.64;98752.56;3727937;78;43949;-18
2021/03/07 13:26:50;;;;;;;5.53;4.87;;;;;;;5.17;71.43;98744.09;3642450;80;43250;-17
2021/03/07 13:31:56;;;;;;;7.20;5.07;;;;;;;5.50;65.61;98739.73;3725873;78;44092;-18
2021/03/07 13:37:02;;;;;;;6.27;5.07;;;;;;;5.69;67.47;98726.27;3639516;80;44060;-18
2021/03/07 13:42:10;;;;;;;7.23;5.07;;;;;;;5.70;66.28;98722.63;3640317;80;43703;-18
2021/03/07 13:47:15;;;;;;;5.37;4.77;;;;;;;5.77;67.45;98718.47;3724109;78;44818;-17
2021/03/07 13:52:21;;;;;;;5.87;4.90;;;;;;;5.45;62.54;98711.68;3639544;80;44039;-17
2021/03/07 13:57:29;;;;;;;5.17;4.47;;;;;;;5.96;67.89;98700.92;3724113;78;43676;-17
2021/03/07 14:02:34;;;;;;;5.77;4.63;;;;;;;5.91;61.17;98691.11;3728407;78;43990;-17
2021/03/07 14:07:41;;;;;;;5.70;5.10;;;;;;;5.93;63.02;98681.14;3715570;79;43593;-18
2021/03/07 14:12:47;;;;;;;7.60;5.33;;;;;;;5.92;62.52;98684.79;3629264;80;44077;-18
2021/03/07 14:17:53;;;;;;;5.33;4.43;;;;;;;6.09;62.81;98672.73;3713678;78;43980;-17
2021/03/07 14:22:59;;;;;;;6.67;4.90;;;;;;;5.99;60.16;98673.94;3634015;80;43275;-18
2021/03/07 14:28:06;;;;;;;6.47;5.47;;;;;;;6.04;61.69;98666.44;3718335;79;43719;-18
2021/03/07 14:33:12;;;;;;;5.60;5.00;;;;;;;6.42;63.85;98657.02;3727610;79;44028;-18
2021/03/07 14:38:18;;;;;;;5.77;4.57;;;;;;;6.56;57.75;98653.67;3629433;80;43714;-18
2021/03/07 14:43:24;;;;;;;5.73;4.80;;;;;;;6.46;59.09;98649.10;3714934;79;42919;-18
2021/03/07 14:48:30;;;;;;;5.87;5.10;;;;;;;6.45;58.72;98644.72;3719414;78;44012;-18
2021/03/07 14:53:35;;;;;;;5.90;5.30;;;;;;;6.27;60.72;98642.27;3720690;78;43719;-18
2021/03/07 14:58:42;;;;;;;7.40;5.57;;;;;;;6.19;61.57;98632.67;3633177;80;43298;-18
2021/03/07 15:03:48;;;;;;;5.97;4.83;;;;;;;6.29;60.66;98629.62;3729659;78;43715;-18
2021/03/07 15:08:54;;;;;;;7.93;5.87;;;;;;;6.62;59.78;98630.41;3820626;76;43417;-18
2021/03/07 15:14:00;;;;;;;6.22;5.47;;;;;;;6.22;59.52;98631.95;3833021;77;69476;-18
2021/03/07 15:19:06;;;;;;;9.77;6.67;;;;;;;6.59;64.11;98610.59;3701795;79;44121;-18
2021/03/07 15:24:12;;;;;;;7.70;6.70;;;;;;;6.15;58.52;98616.91;3763947;78;43451;-19
2021/03/07 15:29:18;;;;;;;7.23;6.40;;;;;;;6.11;63.30;98615.45;3766337;78;44079;-18
2021/03/07 15:34:24;;;;;;;8.07;6.50;;;;;;;6.05;67.30;98609.29;3770969;78;43589;-18
2021/03/07 15:39:32;;;;;;;8.00;6.87;;;;;;;5.95;63.65;98602.48;3765623;78;43451;-17
2021/03/07 15:44:39;;;;;;;7.93;6.90;;;;;;;5.53;62.39;98620.58;3755381;79;69083;-18
2021/03/07 15:49:45;;;;;;;9.63;6.80;;;;;;;5.33;66.72;98611.99;3752576;78;44081;-18
2021/03/07 15:54:51;;;;;;;8.30;6.80;;;;;;;5.12;64.89;98611.38;3764507;78;43353;-18
2021/03/07 15:59:58;;;;;;;9.33;7.07;;;;;;;5.05;67.83;98611.05;3787402;77;42930;-18
2021/03/07 16:05:05;;;;;;;8.83;6.90;;;;;;;4.57;70.92;98606.73;3734251;79;44071;-18
2021/03/07 16:10:14;;;;;;;9.73;7.07;;;;;;;4.56;71.77;98605.03;3768241;77;44077;-18
2021/03/07 16:15:22;;;;;;;8.10;6.47;;;;;;;4.23;71.92;98606.66;3768901;79;43973;-19
2021/03/07 16:20:28;;;;;;;8.27;6.80;;;;;;;4.04;70.68;98614.36;3718871;79;43478;-18
2021/03/07 16:25:35;;;;;;;8.30;6.40;;;;;;;3.80;72.25;98613.39;3698555;79;43722;-18
2021/03/07 16:30:44;;;;;;;7.50;6.07;;;;;;;3.76;72.03;98613.73;3750043;79;43685;-18
2021/03/07 16:35:50;;;;;;;7.77;6.40;;;;;;;3.83;73.73;98618.97;3702493;79;42858;-18
2021/03/07 16:40:57;;;;;;;7.47;5.80;;;;;;;3.64;72.44;98623.00;3765562;77;43943;-18
2021/03/07 16:46:03;;;;;;;8.33;6.23;;;;;;;3.51;73.54;98631.52;3718587;79;43360;-18
2021/03/07 16:51:09;;;;;;;9.40;5.77;;;;;;;3.57;73.49;98631.08;3762837;77;43705;-17
2021/03/07 16:56:15;;;;;;;7.93;5.97;;;;;;;3.18;74.10;98634.31;3725939;77;43753;-16
2021/03/07 17:01:21;;;;;;;7.30;5.57;;;;;;;2.95;74.87;98628.80;3703935;79;43446;-16
2021/03/07 17:06:28;;;;;;;8.07;5.70;;;;;;;2.69;76.80;98639.94;3766666;78;44168;-16
2021/03/07 17:11:33;;;;;;;8.27;5.47;;;;;;;2.42;76.25;98643.03;3767125;78;44051;-17
2021/03/07 17:16:40;;;;;;;6.93;5.73;;;;;;;2.27;75.88;98646.75;3766765;78;44054;-17
2021/03/07 17:21:48;;;;;;;7.77;5.63;;;;;;;2.19;77.45;98652.58;3761776;78;44158;-17
2021/03/07 17:26:54;;;;;;;7.10;5.70;;;;;;;1.96;79.66;98662.06;3842435;76;44011;-17
2021/03/07 17:32:01;;;;;;;6.80;5.53;;;;;;;1.83;81.10;98660.69;3841531;76;44053;-19
2021/03/07 17:37:07;;;;;;;7.27;5.47;;;;;;;1.72;82.60;98673.33;3841273;76;43383;-20
2021/03/07 17:42:13;;;;;;;6.00;5.37;;;;;;;1.57;83.99;98677.83;3836368;76;42934;-18
2021/03/07 17:47:19;;;;;;;9.13;6.10;;;;;;;1.36;88.03;98686.22;3841272;76;43715;-18
2021/03/07 17:52:25;;;;;;;6.47;5.20;;;;;;;1.14;91.52;98698.63;3841781;76;43361;-18
2021/03/07 17:57:31;;;;;;;8.63;5.33;;;;;;;0.93;93.62;98696.84;3841480;76;44125;-19
2021/03/07 18:02:38;;;;;;;6.93;5.40;;;;;;;0.71;95.51;98698.12;3842908;76;44014;-19
2021/03/07 18:07:45;;;;;;;7.63;5.20;;;;;;;0.57;96.97;98699.44;3841756;77;42856;-19
2021/03/07 18:12:52;;;;;;;6.77;4.47;;;;;;;0.36;98.03;98705.04;3843379;76;44087;-19
2021/03/07 18:18:03;;;;;;;8.40;4.80;;;;;;;0.28;97.60;98702.86;3841718;76;43677;-19
2021/03/07 18:23:10;;;;;;;7.77;5.00;;;;;;;0.13;98.57;98699.77;3841107;76;43090;-19
2021/03/07 18:28:18;;;;;;;6.47;4.80;;;;;;;-0.02;99.15;98705.00;3840712;76;43341;-19
2021/03/07 18:33:24;;;;;;;5.60;4.33;;;;;;;-0.07;99.06;98699.13;3840298;76;43193;-19
2021/03/07 18:38:31;;;;;;;5.53;4.47;;;;;;;-0.12;98.90;98709.59;3837023;77;43994;-18
2021/03/07 18:43:39;;;;;;;7.73;4.60;;;;;;;-0.16;99.98;98707.56;3840616;76;43305;-18
2021/03/07 18:48:45;;;;;;;32.63;6.30;;;;;;;-0.32;100.00;98700.95;3839960;76;43988;-17
2021/03/07 18:53:51;;;;;;;7.30;5.03;;;;;;;-0.42;100.00;98707.25;3838514;76;43690;-17
2021/03/07 18:58:58;;;;;;;6.57;5.17;;;;;;;-0.45;100.00;98698.15;3839478;76;43654;-20
2021/03/07 19:04:05;;;;;;;7.13;4.93;;;;;;;-0.54;100.00;98707.92;3849065;76;44010;-16
2021/03/07 19:09:14;;;;;;;7.70;5.00;;;;;;;-0.59;100.00;98708.62;3831703;77;43400;-17
2021/03/07 19:14:24;;;;;;;7.53;5.30;;;;;;;-0.65;100.00;98697.42;3830828;77;26364;-16
2021/03/07 19:19:31;;;;;;;7.83;5.23;;;;;;;-0.64;100.00;98695.17;3720933;78;44083;-17
2021/03/07 19:24:38;;;;;;;7.67;4.63;;;;;;;-0.70;100.00;98692.88;3719001;79;43999;-17
2021/03/07 19:29:46;;;;;;;7.13;4.60;;;;;;;-0.74;100.00;98685.19;3825535;77;43325;-17
2021/03/07 19:34:52;;;;;;;6.10;4.57;;;;;;;-0.77;100.00;98680.93;3825354;77;44705;-17
2021/03/07 19:39:58;;;;;;;6.43;4.33;;;;;;;-0.89;100.00;98685.56;3831127;77;43938;-17
2021/03/07 19:45:10;;;;;;;6.53;4.37;;;;;;;-0.97;100.00;98688.61;3831455;77;43678;-17
2021/03/07 19:50:27;;;;;;;7.23;4.70;;;;;;;-0.96;100.00;98685.87;3801211;77;26367;-17
2021/03/07 19:55:37;;;;;;;6.33;4.50;;;;;;;-1.03;100.00;98684.50;3831769;77;43364;-16
2021/03/07 20:00:44;;;;;;;6.30;4.10;;;;;;;-1.08;100.00;98689.17;3815066;76;43729;-17
2021/03/07 20:06:08;;;;;;;7.50;4.27;;;;;;;-1.04;100.00;98696.02;3831371;77;26461;-17
2021/03/07 20:11:16;;;;;;;7.97;4.07;;;;;;;-0.97;100.00;98704.00;3831461;76;44020;-16
2021/03/07 20:16:24;;;;;;;5.10;3.80;;;;;;;-0.95;100.00;98701.29;3831265;77;27571;-18
2021/03/07 20:21:30;;;;;;;5.27;3.50;;;;;;;-0.86;100.00;98689.34;3831304;76;44105;-18
2021/03/07 20:26:37;;;;;;;7.20;3.80;;;;;;;-0.56;100.00;98695.23;3831918;77;43183;-17
2021/03/07 20:31:46;;;;;;;5.07;4.00;;;;;;;-0.54;100.00;98694.69;3765056;78;26315;-17
2021/03/07 20:36:53;;;;;;;6.50;4.40;;;;;;;-0.40;100.00;98689.47;3769020;78;44022;-18
2021/03/07 20:42:04;;;;;;;5.93;4.70;;;;;;;-0.44;100.00;98683.98;3766164;77;26495;-18
2021/03/07 20:47:12;;;;;;;7.37;5.07;;;;;;;-0.62;100.00;98695.11;3724838;79;26648;-18
2021/03/07 20:52:19;;;;;;;6.50;4.80;;;;;;;-0.72;100.00;98685.48;3713365;78;43419;-18
2021/03/07 20:57:26;;;;;;;7.33;4.70;;;;;;;-0.70;100.00;98688.91;3831490;77;43960;-18
2021/03/07 21:02:32;;;;;;;6.87;5.03;;;;;;;-0.71;100.00;98696.45;3831915;77;43692;-18
2021/03/07 21:07:38;;;;;;;8.57;5.03;;;;;;;-0.70;100.00;98688.03;3831373;77;44424;-17
2021/03/07 21:12:45;;;;;;;7.20;4.63;;;;;;;-0.66;100.00;98683.84;3831814;77;43673;-18
2021/03/07 21:17:52;;;;;;;5.60;4.40;;;;;;;-0.60;100.00;98675.16;3831105;77;44070;-18
2021/03/07 21:22:58;;;;;;;7.77;5.10;;;;;;;-0.50;100.00;98681.20;3831281;77;43722;-17
2021/03/07 21:28:05;;;;;;;7.77;4.77;;;;;;;-0.50;100.00;98688.27;3831764;77;43441;-18
2021/03/07 21:33:11;;;;;;;8.67;3.93;;;;;;;-0.46;100.00;98677.91;3824633;77;43992;-18
2021/03/07 21:38:17;;;;;;;7.33;4.00;;;;;;;-0.34;100.00;98686.48;3831888;76;43953;-18
2021/03/07 21:43:23;;;;;;;6.10;3.73;;;;;;;-0.14;100.00;98676.55;3831615;77;44062;-17
2021/03/07 21:48:30;;;;;;;5.67;3.73;;;;;;;0.08;100.00;98677.52;3737728;78;43936;-17
2021/03/07 21:53:36;;;;;;;4.87;3.73;;;;;;;0.14;97.93;98676.30;3787697;77;43423;-17
2021/03/07 21:58:43;;;;;;;6.50;4.53;;;;;;;0.14;97.05;98671.01;3820082;77;43390;-18
2021/03/07 22:03:50;;;;;;;6.67;3.80;;;;;;;0.10;98.40;98666.81;3832325;77;44051;-18
2021/03/07 22:08:55;;;;;;;5.17;4.00;;;;;;;0.11;100.00;98680.45;3746754;78;44497;-18
2021/03/07 22:14:01;;;;;;;6.17;4.60;;;;;;;-0.02;100.00;98682.48;3745412;78;44110;-18
2021/03/07 22:19:07;;;;;;;6.53;3.97;;;;;;;-0.24;100.00;98673.60;3749553;78;43690;-18
2021/03/07 22:24:13;;;;;;;8.33;4.30;;;;;;;-0.30;100.00;98673.09;3742123;78;44231;-18
2021/03/07 22:29:19;;;;;;;6.60;4.20;;;;;;;-0.28;100.00;98675.16;3787845;77;43819;-18
2021/03/07 22:34:26;;;;;;;8.13;4.40;;;;;;;-0.27;100.00;98665.82;3698876;80;43985;-18
2021/03/07 22:39:33;;;;;;;5.93;4.20;;;;;;;-0.26;100.00;98666.66;3831310;77;44001;-18
2021/03/07 22:44:39;;;;;;;5.73;3.87;;;;;;;-0.28;100.00;98650.88;3831810;77;44043;-18
2021/03/07 22:49:45;;;;;;;6.67;4.33;;;;;;;-0.27;100.00;98649.94;3728563;78;43402;-18
2021/03/07 22:54:52;;;;;;;7.07;4.33;;;;;;;-0.23;100.00;98647.96;3801037;77;43316;-18
2021/03/07 22:59:58;;;;;;;7.47;4.10;;;;;;;-0.22;100.00;98648.34;3800806;77;44496;-18
2021/03/07 23:05:05;;;;;;;7.40;4.60;;;;;;;-0.28;100.00;98648.68;3698921;80;43669;-18
2021/03/07 23:10:14;;;;;;;5.87;4.40;;;;;;;-0.26;100.00;98650.77;3691117;79;43467;-18
2021/03/07 23:15:22;;;;;;;6.30;4.50;;;;;;;-0.25;100.00;98652.48;3840946;76;43721;-18
2021/03/07 23:20:29;;;;;;;7.83;4.70;;;;;;;-0.28;100.00;98640.73;3842225;76;43673;-18
2021/03/07 23:25:37;;;;;;;9.67;5.03;;;;;;;-0.25;100.00;98639.25;3841725;76;44075;-18
2021/03/07 23:30:45;;;;;;;7.33;5.07;;;;;;;-0.25;100.00;98635.27;3830398;76;43085;-17
2021/03/07 23:35:51;;;;;;;6.43;4.90;;;;;;;-0.24;100.00;98634.34;3841788;76;43446;-17
2021/03/07 23:40:58;;;;;;;8.73;5.37;;;;;;;-0.23;100.00;98625.45;3841848;76;44030;-17
2021/03/07 23:46:04;;;;;;;7.37;5.10;;;;;;;-0.21;100.00;98626.22;3842066;76;43417;-17
2021/03/07 23:51:10;;;;;;;8.37;4.77;;;;;;;-0.23;100.00;98615.70;3841342;76;44110;-18
2021/03/07 23:56:16;;;;;;;6.27;4.87;;;;;;;-0.23;100.00;98624.97;3841778;76;43471;-17
